Time;durP1;ratioP1;P1;durP2;ratioP2;P2;SDS_P1;SDS_P2;PMS_P1;PMS_P2;Temp;Humidity;BMP_temperature;BMP_pressure;BME280_temperature;BME280_humidity;BME280_pressure;Samples;Min_cycle;Max_cycle;Signal;HPM_P1;HPM_P2
2021/06/18 00:00:01;;;;;;;13.15;9.65;;;24.40;99.90;;;;;;5033523;28;20033;-94
2021/06/18 00:02:27;;;;;;;10.25;9.30;;;24.50;99.90;;;;;;5033446;28;20068;-93
2021/06/18 00:04:55;;;;;;;10.13;9.25;;;24.50;99.90;;;;;;5032742;28;20064;-94
2021/06/18 00:07:21;;;;;;;10.90;9.90;;;24.60;99.90;;;;;;5032533;28;20059;-94
2021/06/18 00:09:47;;;;;;;10.18;9.27;;;24.50;99.90;;;;;;5032898;28;20025;-94
2021/06/18 00:12:17;;;;;;;10.27;9.25;;;24.50;99.90;;;;;;5033312;28;20481;-94
2021/06/18 00:14:43;;;;;;;11.20;9.98;;;24.40;99.90;;;;;;5033130;28;20064;-94
2021/06/18 00:17:09;;;;;;;10.20;9.40;;;24.40;99.90;;;;;;5036507;28;20041;-94
2021/06/18 00:19:52;;;;;;;11.07;10.18;;;24.40;99.90;;;;;;5018975;28;20546;-94
2021/06/18 00:22:18;;;;;;;11.88;10.82;;;24.30;99.90;;;;;;5016097;28;20037;-94
2021/06/18 00:24:44;;;;;;;10.90;9.85;;;24.20;99.90;;;;;;5027307;28;20049;-93
2021/06/18 00:27:10;;;;;;;10.75;9.68;;;24.20;99.90;;;;;;5037307;28;20501;-93
2021/06/18 00:29:35;;;;;;;11.00;10.10;;;24.10;99.90;;;;;;5019541;28;20037;-92
2021/06/18 00:32:01;;;;;;;11.13;10.10;;;24.10;99.90;;;;;;5019459;28;20013;-94
2021/06/18 00:34:26;;;;;;;11.20;10.20;;;24.00;99.90;;;;;;5036277;28;20030;-93
2021/06/18 00:36:52;;;;;;;12.15;10.23;;;24.00;99.90;;;;;;5014548;28;20497;-93
2021/06/18 00:39:17;;;;;;;11.35;10.35;;;24.00;99.90;;;;;;5018999;28;20049;-93
2021/06/18 00:41:47;;;;;;;14.90;10.18;;;23.90;99.90;;;;;;5036432;28;20071;-94
2021/06/18 00:44:13;;;;;;;11.32;10.32;;;23.90;99.90;;;;;;5019420;28;20029;-93
2021/06/18 00:46:44;;;;;;;13.38;10.23;;;23.70;99.90;;;;;;5037143;28;20105;-94
2021/06/18 00:49:11;;;;;;;11.95;10.77;;;23.70;99.90;;;;;;5037124;28;20021;-94
2021/06/18 00:51:38;;;;;;;11.80;10.68;;;23.70;99.90;;;;;;5037063;28;20033;-93
2021/06/18 00:54:05;;;;;;;10.77;9.88;;;23.70;99.90;;;;;;5037574;28;20032;-93
2021/06/18 00:56:31;;;;;;;11.40;10.25;;;23.70;99.90;;;;;;5019006;28;20080;-94
2021/06/18 00:58:57;;;;;;;11.85;10.88;;;23.70;99.90;;;;;;5018919;28;20417;-93
2021/06/18 01:01:23;;;;;;;11.40;10.30;;;23.60;99.90;;;;;;5019004;28;20552;-93
2021/06/18 01:03:49;;;;;;;12.05;10.73;;;23.60;99.90;;;;;;5024908;28;20029;-94
2021/06/18 01:06:21;;;;;;;12.48;11.35;;;23.60;99.90;;;;;;5017241;28;20050;-93
2021/06/18 01:08:55;;;;;;;12.27;11.05;;;23.50;99.90;;;;;;4999646;28;20026;-93
2021/06/18 01:12:09;;;;;;;12.00;10.80;;;23.50;99.90;;;;;;5017057;28;20029;-94
2021/06/18 01:14:55;;;;;;;12.57;11.02;;;23.50;99.90;;;;;;5030499;28;20052;-93
2021/06/18 01:17:25;;;;;;;11.43;10.32;;;23.50;99.90;;;;;;5016785;28;20034;-93
2021/06/18 01:19:53;;;;;;;11.90;10.90;;;23.40;99.90;;;;;;5016731;28;20026;-93
2021/06/18 01:22:23;;;;;;;11.88;10.70;;;23.30;99.90;;;;;;5030199;28;20444;-94
2021/06/18 01:24:58;;;;;;;12.32;11.00;;;23.30;99.90;;;;;;5036054;28;20056;-94
2021/06/18 01:27:32;;;;;;;11.52;10.30;;;23.30;99.90;;;;;;5023202;28;20402;-93
2021/06/18 01:30:07;;;;;;;11.52;10.43;;;23.30;99.90;;;;;;5036500;28;20034;-93
2021/06/18 01:32:37;;;;;;;12.55;10.82;;;23.30;99.90;;;;;;5035772;28;20025;-93
2021/06/18 01:35:04;;;;;;;12.57;11.38;;;23.30;99.90;;;;;;5016907;28;20030;-93
2021/06/18 01:37:32;;;;;;;11.85;10.75;;;23.40;99.90;;;;;;4999573;28;20053;-92
2021/06/18 01:40:03;;;;;;;11.55;10.55;;;23.40;99.90;;;;;;5016643;28;20030;-93
2021/06/18 01:42:32;;;;;;;11.27;10.38;;;23.40;99.90;;;;;;4998934;28;20029;-94
2021/06/18 01:44:58;;;;;;;12.23;11.07;;;23.40;99.90;;;;;;5019711;28;20060;-94
2021/06/18 01:47:24;;;;;;;11.48;10.48;;;23.40;99.90;;;;;;5017731;28;20030;-94
2021/06/18 01:49:51;;;;;;;11.85;10.73;;;23.30;99.90;;;;;;5017985;28;20119;-94
2021/06/18 01:52:18;;;;;;;12.98;11.02;;;23.30;99.90;;;;;;5040185;28;20093;-94
2021/06/18 01:54:46;;;;;;;12.30;10.93;;;23.20;99.90;;;;;;5017535;28;20533;-94
2021/06/18 01:57:13;;;;;;;11.60;10.52;;;23.10;99.90;;;;;;5017791;28;20040;-94
2021/06/18 01:59:41;;;;;;;11.27;10.32;;;23.10;99.90;;;;;;5035837;28;20032;-93
2021/06/18 02:02:08;;;;;;;12.07;11.07;;;23.10;99.90;;;;;;5035177;28;20022;-94
2021/06/18 02:04:37;;;;;;;11.70;10.50;;;23.10;99.90;;;;;;5035700;28;20115;-93
2021/06/18 02:07:04;;;;;;;11.50;10.40;;;23.00;99.90;;;;;;5018295;28;20025;-93
2021/06/18 02:09:33;;;;;;;11.70;10.55;;;23.00;99.90;;;;;;5017580;28;20123;-94
2021/06/18 02:11:59;;;;;;;11.80;10.80;;;22.90;99.90;;;;;;5017996;28;20502;-93
2021/06/18 02:14:28;;;;;;;12.43;10.77;;;23.00;99.90;;;;;;5035656;28;20036;-93
2021/06/18 02:16:59;;;;;;;12.85;11.77;;;22.90;99.90;;;;;;5015609;28;20033;-94
2021/06/18 02:19:25;;;;;;;12.90;11.70;;;22.80;99.90;;;;;;5010249;28;20484;-93
2021/06/18 02:21:53;;;;;;;13.02;11.82;;;22.70;99.90;;;;;;5035328;28;20057;-94
2021/06/18 02:24:22;;;;;;;12.70;11.52;;;22.70;99.90;;;;;;5035259;28;20049;-94
2021/06/18 02:26:49;;;;;;;12.35;11.02;;;22.60;99.90;;;;;;5017727;28;20026;-94
2021/06/18 02:29:15;;;;;;;11.30;10.30;;;22.40;99.90;;;;;;5035508;28;20022;-94
2021/06/18 02:31:43;;;;;;;12.00;10.80;;;22.50;99.90;;;;;;5034869;28;20037;-93
2021/06/18 02:34:10;;;;;;;11.10;10.10;;;22.60;99.90;;;;;;5026426;28;20112;-94
2021/06/18 02:36:38;;;;;;;12.05;10.88;;;22.70;99.90;;;;;;5035401;28;20041;-94
2021/06/18 02:39:06;;;;;;;10.48;9.63;;;22.70;99.90;;;;;;5034143;28;20497;-94
2021/06/18 02:41:33;;;;;;;12.27;10.32;;;22.60;99.90;;;;;;5035208;28;20014;-93
2021/06/18 02:44:02;;;;;;;12.13;10.95;;;22.60;99.90;;;;;;5034980;28;20036;-93
2021/06/18 02:47:08;;;;;;;11.30;9.93;;;22.60;99.90;;;;;;5034776;28;20025;-94
2021/06/18 02:49:54;;;;;;;11.95;10.75;;;22.50;99.90;;;;;;5033383;28;20033;-94
2021/06/18 02:52:27;;;;;;;12.15;10.77;;;22.50;99.90;;;;;;5035083;28;20112;-93
2021/06/18 02:55:08;;;;;;;13.45;11.05;;;22.60;99.90;;;;;;5035260;28;20033;-93
2021/06/18 02:57:41;;;;;;;11.98;10.75;;;22.50;99.90;;;;;;5034566;28;20041;-94
2021/06/18 03:00:11;;;;;;;12.30;10.80;;;22.40;99.90;;;;;;5034448;28;20030;-93
2021/06/18 03:02:52;;;;;;;12.27;11.07;;;22.40;99.90;;;;;;5017050;28;20144;-93
2021/06/18 03:05:21;;;;;;;12.25;11.15;;;22.30;99.90;;;;;;5030270;28;20052;-93
2021/06/18 03:08:12;;;;;;;12.65;11.38;;;22.30;99.90;;;;;;5035034;28;20053;-93
2021/06/18 03:10:48;;;;;;;12.38;11.30;;;22.30;99.90;;;;;;5051944;28;20048;-94
2021/06/18 03:13:19;;;;;;;12.98;11.82;;;22.20;99.90;;;;;;5022171;28;20033;-94
2021/06/18 03:15:46;;;;;;;13.23;11.93;;;22.20;99.90;;;;;;5034375;28;20168;-94
2021/06/18 03:18:14;;;;;;;13.43;12.05;;;22.20;99.90;;;;;;5016881;28;20128;-93
2021/06/18 03:20:42;;;;;;;15.68;14.00;;;22.10;99.90;;;;;;5034372;28;20397;-94
2021/06/18 03:23:11;;;;;;;13.85;12.65;;;22.00;99.90;;;;;;5016886;28;20048;-93
2021/06/18 03:25:38;;;;;;;13.02;11.88;;;21.90;99.90;;;;;;5016682;28;20025;-94
2021/06/18 03:28:06;;;;;;;13.45;12.25;;;21.90;99.90;;;;;;5016271;28;20026;-93
2021/06/18 03:30:33;;;;;;;13.05;11.75;;;21.80;99.90;;;;;;5034506;28;20390;-94
2021/06/18 03:33:01;;;;;;;13.02;11.73;;;21.80;99.90;;;;;;5016725;28;20026;-94
2021/06/18 03:35:31;;;;;;;13.63;12.35;;;21.70;99.90;;;;;;5034724;28;20025;-94
2021/06/18 03:37:58;;;;;;;13.10;11.75;;;21.60;99.90;;;;;;5034433;28;20041;-94
2021/06/18 03:40:24;;;;;;;13.85;12.57;;;21.50;99.90;;;;;;5034100;28;20048;-94
2021/06/18 03:42:52;;;;;;;14.00;12.60;;;21.50;99.90;;;;;;5032880;28;20038;-93
2021/06/18 03:45:20;;;;;;;14.43;13.10;;;21.70;99.90;;;;;;5033945;28;20079;-94
2021/06/18 03:47:47;;;;;;;13.13;11.73;;;21.60;99.90;;;;;;5036111;28;20029;-94
2021/06/18 03:50:20;;;;;;;14.70;13.13;;;21.60;99.90;;;;;;5036917;28;20473;-94
2021/06/18 03:52:46;;;;;;;13.45;12.32;;;21.60;99.90;;;;;;5037773;28;20401;-94
2021/06/18 03:55:12;;;;;;;14.60;13.15;;;21.50;99.90;;;;;;5020306;28;20112;-94
2021/06/18 03:57:40;;;;;;;13.93;12.60;;;21.50;99.90;;;;;;5036740;28;20045;-94
2021/06/18 04:00:07;;;;;;;14.20;12.85;;;21.50;99.90;;;;;;5037794;28;20029;-94
2021/06/18 04:02:33;;;;;;;14.55;13.23;;;21.50;99.90;;;;;;5037814;28;20048;-92
2021/06/18 04:05:01;;;;;;;13.98;12.43;;;21.50;99.90;;;;;;5019954;28;20030;-94
2021/06/18 04:07:29;;;;;;;14.68;13.20;;;21.40;99.90;;;;;;5038236;28;20104;-96
2021/06/18 04:09:56;;;;;;;15.27;13.75;;;21.50;99.90;;;;;;5042590;28;20116;-96
2021/06/18 04:12:22;;;;;;;13.95;12.68;;;21.50;99.90;;;;;;5041960;28;20057;-96
2021/06/18 04:14:47;;;;;;;14.52;12.90;;;21.50;99.90;;;;;;5046725;28;20030;-94
2021/06/18 04:17:13;;;;;;;14.55;13.20;;;21.50;99.90;;;;;;5040143;28;20033;-96
2021/06/18 04:19:41;;;;;;;15.68;13.98;;;21.50;99.90;;;;;;5040514;28;20052;-94
2021/06/18 04:22:11;;;;;;;14.10;12.73;;;21.50;99.90;;;;;;5039950;28;20029;-96
2021/06/18 04:24:39;;;;;;;16.00;13.43;;;21.60;99.90;;;;;;5020905;28;20049;-96
2021/06/18 04:27:05;;;;;;;14.45;12.68;;;21.50;99.90;;;;;;5024248;28;20490;-94
2021/06/18 04:29:31;;;;;;;13.52;12.27;;;21.50;99.90;;;;;;5040348;28;20152;-96
2021/06/18 04:31:57;;;;;;;14.23;12.77;;;21.60;99.90;;;;;;5042493;28;20033;-96
2021/06/18 04:34:22;;;;;;;13.13;11.77;;;21.60;99.90;;;;;;5039912;28;20034;-96
2021/06/18 04:36:48;;;;;;;13.02;11.82;;;21.70;99.90;;;;;;5038160;28;20028;-95
2021/06/18 04:39:14;;;;;;;14.90;12.80;;;21.70;99.90;;;;;;5018798;28;20041;-96
2021/06/18 04:41:42;;;;;;;13.48;12.05;;;21.70;99.90;;;;;;5021802;28;20079;-96
2021/06/18 04:44:08;;;;;;;14.77;12.40;;;21.60;99.90;;;;;;5035399;28;20117;-93
2021/06/18 04:46:34;;;;;;;14.02;12.70;;;21.70;99.90;;;;;;5037173;28;20061;-95
2021/06/18 04:49:00;;;;;;;14.52;13.13;;;21.80;99.90;;;;;;5037879;28;20025;-96
2021/06/18 04:51:26;;;;;;;13.88;12.48;;;21.80;99.90;;;;;;5037803;28;20034;-96
2021/06/18 04:53:55;;;;;;;14.05;12.75;;;21.90;99.90;;;;;;5023384;28;20107;-96
2021/06/18 04:56:21;;;;;;;14.85;13.48;;;21.80;99.90;;;;;;5020237;28;20029;-96
2021/06/18 04:58:46;;;;;;;14.13;12.77;;;21.90;99.90;;;;;;5020218;28;20041;-96
2021/06/18 05:01:12;;;;;;;14.30;12.85;;;22.10;99.90;;;;;;5010100;28;20022;-96
2021/06/18 05:03:38;;;;;;;14.57;13.20;;;22.10;99.90;;;;;;5025013;28;20167;-96
2021/06/18 05:06:04;;;;;;;14.23;12.95;;;22.10;99.90;;;;;;5038909;28;20057;-96
2021/06/18 05:08:30;;;;;;;14.20;12.77;;;22.20;99.90;;;;;;5036717;28;20021;-96
2021/06/18 05:10:55;;;;;;;14.50;12.68;;;22.30;99.90;;;;;;5034138;28;20026;-95
2021/06/18 05:13:21;;;;;;;13.98;12.73;;;22.40;99.90;;;;;;5035806;28;20041;-95
2021/06/18 05:15:48;;;;;;;14.63;13.13;;;22.30;99.90;;;;;;5036230;28;20030;-93
2021/06/18 05:18:13;;;;;;;14.75;13.25;;;22.30;99.90;;;;;;5036016;28;20037;-96
2021/06/18 05:20:39;;;;;;;14.23;12.68;;;22.30;99.90;;;;;;5037441;28;20052;-96
2021/06/18 05:23:05;;;;;;;17.40;13.13;;;22.40;99.90;;;;;;5036380;28;20045;-95
2021/06/18 05:25:31;;;;;;;14.48;13.10;;;22.50;99.90;;;;;;5034789;28;20033;-96
2021/06/18 05:27:56;;;;;;;13.80;12.45;;;22.70;99.90;;;;;;5036118;28;20516;-95
2021/06/18 05:30:22;;;;;;;12.70;11.48;;;22.60;99.90;;;;;;5035639;28;20504;-94
2021/06/18 05:32:49;;;;;;;13.98;12.23;;;22.80;99.90;;;;;;5035758;28;20034;-95
2021/06/18 05:35:16;;;;;;;13.95;12.60;;;22.60;99.90;;;;;;5036355;28;20029;-95
2021/06/18 05:37:42;;;;;;;13.75;12.30;;;22.80;99.90;;;;;;5035423;28;20547;-95
2021/06/18 05:40:08;;;;;;;13.93;12.52;;;22.90;99.90;;;;;;5036541;28;20113;-96
2021/06/18 05:42:36;;;;;;;12.68;11.57;;;22.90;99.90;;;;;;5036055;28;20041;-96
2021/06/18 05:45:02;;;;;;;13.15;11.63;;;23.00;99.90;;;;;;5036152;28;20056;-96
2021/06/18 05:47:28;;;;;;;13.07;10.90;;;23.10;99.90;;;;;;5035364;28;20359;-96
2021/06/18 05:49:53;;;;;;;12.88;11.57;;;23.20;99.90;;;;;;5034746;28;20079;-96
2021/06/18 05:52:19;;;;;;;12.57;11.45;;;23.30;99.90;;;;;;5014409;28;20466;-95
2021/06/18 05:54:45;;;;;;;14.50;11.48;;;23.40;99.90;;;;;;5018149;28;20029;-96
2021/06/18 05:57:10;;;;;;;11.90;10.80;;;23.50;99.90;;;;;;5035136;28;20057;-96
2021/06/18 05:59:36;;;;;;;12.48;11.25;;;23.60;99.90;;;;;;5035532;28;20038;-94
2021/06/18 06:02:02;;;;;;;12.32;10.75;;;23.70;99.90;;;;;;5035196;28;20029;-94
2021/06/18 06:04:27;;;;;;;17.60;11.13;;;23.80;99.90;;;;;;5036232;28;20034;-95
2021/06/18 06:06:53;;;;;;;12.23;10.70;;;24.00;99.90;;;;;;5017787;28;20024;-95
2021/06/18 06:09:19;;;;;;;13.60;10.73;;;24.00;99.90;;;;;;5035416;28;20033;-95
2021/06/18 06:11:45;;;;;;;11.55;10.45;;;24.10;99.90;;;;;;5035330;28;20021;-96
2021/06/18 06:14:16;;;;;;;13.07;11.00;;;24.30;99.90;;;;;;5033995;28;20047;-95
2021/06/18 06:16:42;;;;;;;12.10;10.27;;;24.40;99.90;;;;;;5035745;28;20100;-94
2021/06/18 06:19:08;;;;;;;11.52;10.32;;;24.50;99.90;;;;;;5034733;28;20037;-96
2021/06/18 06:21:33;;;;;;;13.23;10.57;;;24.70;99.90;;;;;;5011774;28;20505;-96
2021/06/18 06:23:59;;;;;;;11.05;10.02;;;24.70;99.90;;;;;;5016280;28;20426;-95
2021/06/18 06:26:25;;;;;;;10.98;9.93;;;24.70;99.90;;;;;;5034720;28;20051;-96
2021/06/18 06:28:50;;;;;;;16.13;10.35;;;24.90;99.90;;;;;;5015960;28;20453;-95
2021/06/18 06:31:16;;;;;;;9.52;8.70;;;25.10;99.90;;;;;;5033670;28;20030;-95
2021/06/18 06:33:49;;;;;;;11.95;8.00;;;25.20;99.90;;;;;;5145276;27;20135;-94
2021/06/18 06:36:15;;;;;;;8.70;7.30;;;25.30;99.90;;;;;;5130655;27;20026;-94
2021/06/18 06:38:41;;;;;;;7.65;6.85;;;25.20;99.90;;;;;;5129783;27;20034;-94
2021/06/18 06:41:07;;;;;;;9.77;7.30;;;25.20;99.90;;;;;;5131330;27;20070;-94
2021/06/18 06:43:33;;;;;;;8.07;6.43;;;25.30;99.90;;;;;;5129446;27;20019;-94
2021/06/18 06:45:59;;;;;;;8.00;5.70;;;25.40;99.90;;;;;;5130237;28;20116;-94
2021/06/18 06:48:25;;;;;;;5.70;5.18;;;25.40;99.90;;;;;;5127250;27;20476;-93
2021/06/18 06:50:51;;;;;;;8.43;6.03;;;25.50;99.90;;;;;;5128142;27;20031;-94
2021/06/18 06:53:17;;;;;;;6.75;5.68;;;25.60;99.90;;;;;;5127103;28;20042;-95
2021/06/18 06:55:43;;;;;;;6.40;5.88;;;25.70;99.90;;;;;;5131387;28;20476;-93
2021/06/18 06:58:08;;;;;;;7.45;5.70;;;25.70;99.90;;;;;;5127903;28;20130;-95
2021/06/18 07:00:34;;;;;;;7.45;5.97;;;25.80;99.90;;;;;;5127899;27;20027;-95
2021/06/18 07:03:00;;;;;;;6.15;5.32;;;26.00;99.90;;;;;;5127028;28;20548;-93
2021/06/18 07:05:25;;;;;;;5.65;5.13;;;26.10;99.90;;;;;;5126184;27;20068;-94
2021/06/18 07:07:51;;;;;;;5.70;5.20;;;26.30;99.90;;;;;;5131552;28;20054;-95
2021/06/18 07:10:18;;;;;;;5.60;5.07;;;26.40;99.90;;;;;;5129368;28;20118;-94
2021/06/18 07:12:44;;;;;;;6.45;5.20;;;26.30;99.90;;;;;;5126781;28;20039;-94
2021/06/18 07:15:10;;;;;;;5.22;4.72;;;26.40;99.90;;;;;;5131156;28;20143;-94
2021/06/18 07:17:36;;;;;;;5.75;4.80;;;26.50;99.90;;;;;;5127407;27;20398;-94
2021/06/18 07:20:02;;;;;;;5.75;5.10;;;26.30;99.90;;;;;;5110852;28;20031;-95
2021/06/18 07:22:30;;;;;;;5.35;4.85;;;26.60;99.90;;;;;;5118951;28;20050;-94
2021/06/18 07:24:56;;;;;;;5.53;5.03;;;26.60;99.90;;;;;;5128960;27;20032;-95
2021/06/18 07:27:23;;;;;;;4.70;4.30;;;26.70;99.90;;;;;;5129896;27;20080;-94
2021/06/18 07:29:49;;;;;;;5.40;4.35;;;26.80;99.90;;;;;;5129852;27;20048;-94
2021/06/18 07:32:15;;;;;;;7.32;4.88;;;27.00;99.90;;;;;;5129615;27;20078;-94
2021/06/18 07:34:41;;;;;;;6.07;4.70;;;27.00;99.90;;;;;;5125541;27;20403;-95
2021/06/18 07:37:06;;;;;;;5.38;4.72;;;27.00;99.90;;;;;;5127035;27;20052;-95
2021/06/18 07:39:32;;;;;;;5.78;5.00;;;27.30;99.90;;;;;;5126680;27;20054;-94
2021/06/18 07:41:58;;;;;;;5.43;4.93;;;27.50;99.90;;;;;;5128797;28;20047;-95
2021/06/18 07:44:24;;;;;;;5.32;4.70;;;27.60;99.90;;;;;;5120644;28;20110;-95
2021/06/18 07:46:49;;;;;;;5.53;5.03;;;27.50;99.90;;;;;;5109249;28;20031;-94
2021/06/18 07:49:15;;;;;;;5.63;5.00;;;27.70;99.90;;;;;;5114607;28;20380;-95
2021/06/18 07:51:41;;;;;;;5.95;4.60;;;27.60;99.90;;;;;;5113350;28;20106;-95
2021/06/18 07:54:07;;;;;;;6.05;5.22;;;27.20;99.90;;;;;;5114236;28;20031;-94
2021/06/18 07:56:36;;;;;;;6.13;4.60;;;26.90;99.90;;;;;;5116339;28;20028;-94
2021/06/18 07:59:02;;;;;;;6.28;4.60;;;27.00;99.90;;;;;;5115803;28;20039;-94
2021/06/18 08:01:28;;;;;;;10.65;5.10;;;27.00;99.90;;;;;;5113762;28;20471;-93
2021/06/18 08:03:53;;;;;;;5.05;4.53;;;27.30;99.90;;;;;;5113502;28;20057;-94
2021/06/18 08:06:19;;;;;;;5.63;4.53;;;26.90;99.90;;;;;;5115129;27;20102;-94
2021/06/18 08:08:45;;;;;;;13.30;5.88;;;26.70;99.90;;;;;;5113288;28;20027;-94
2021/06/18 08:11:11;;;;;;;9.38;4.90;;;27.00;99.90;;;;;;5114875;28;20065;-94
2021/06/18 08:13:37;;;;;;;7.47;5.18;;;27.10;99.90;;;;;;5108377;28;20040;-91
2021/06/18 08:16:04;;;;;;;7.00;5.00;;;26.90;99.90;;;;;;5107026;28;20012;-91
2021/06/18 08:18:30;;;;;;;6.90;4.70;;;26.90;99.90;;;;;;5111826;28;20020;-89
2021/06/18 08:20:56;;;;;;;5.55;4.47;;;27.20;99.90;;;;;;5097802;28;20028;-90
2021/06/18 08:23:22;;;;;;;5.20;4.70;;;27.30;99.90;;;;;;5115933;28;20026;-92
2021/06/18 08:25:50;;;;;;;7.95;4.50;;;27.20;99.90;;;;;;5113313;28;20028;-92
2021/06/18 08:28:15;;;;;;;8.60;4.90;;;27.00;99.90;;;;;;5113474;28;20023;-91
2021/06/18 08:30:41;;;;;;;5.38;4.88;;;27.10;99.90;;;;;;5113141;28;20122;-91
2021/06/18 08:33:07;;;;;;;5.03;4.53;;;27.20;99.90;;;;;;5111369;28;20122;-91
2021/06/18 08:35:33;;;;;;;5.40;4.85;;;27.40;99.90;;;;;;5114751;28;20043;-92
2021/06/18 08:38:01;;;;;;;5.20;4.70;;;27.50;99.90;;;;;;5114115;28;20023;-91
2021/06/18 08:40:29;;;;;;;5.45;4.95;;;27.40;99.90;;;;;;5113031;28;20077;-92
2021/06/18 08:42:56;;;;;;;9.45;4.70;;;27.60;99.90;;;;;;5113349;28;20020;-91
2021/06/18 08:45:22;;;;;;;5.47;4.45;;;27.70;99.90;;;;;;5109776;28;20038;-91
2021/06/18 08:47:49;;;;;;;9.85;4.78;;;27.80;99.90;;;;;;5111556;28;20024;-91
2021/06/18 08:50:22;;;;;;;6.65;4.53;;;27.80;99.90;;;;;;5115155;28;20044;-91
2021/06/18 08:52:49;;;;;;;8.15;4.97;;;27.60;99.90;;;;;;5096114;28;20514;-90
2021/06/18 08:55:20;;;;;;;5.72;5.10;;;27.50;99.90;;;;;;5108309;28;20058;-95
2021/06/18 08:57:50;;;;;;;6.53;5.22;;;27.60;99.90;;;;;;5113851;28;20092;-95
2021/06/18 09:00:22;;;;;;;7.50;4.95;;;27.70;99.90;;;;;;5112066;28;20031;-95
2021/06/18 09:02:47;;;;;;;5.35;4.85;;;27.90;99.90;;;;;;5112232;28;20027;-96
2021/06/18 09:05:14;;;;;;;6.72;4.80;;;28.30;99.90;;;;;;5115929;27;20020;-94
2021/06/18 09:07:55;;;;;;;6.13;4.60;;;28.50;99.90;;;;;;5111292;28;20028;-93
2021/06/18 09:10:40;;;;;;;5.70;5.15;;;28.00;99.90;;;;;;5111923;28;20050;-93
2021/06/18 09:13:14;;;;;;;5.80;4.85;;;28.30;99.90;;;;;;5111883;28;20048;-94
2021/06/18 09:15:54;;;;;;;6.07;5.53;;;28.40;99.90;;;;;;5111088;28;20023;-94
2021/06/18 09:18:36;;;;;;;8.35;5.72;;;28.60;99.90;;;;;;5111574;28;20042;-93
2021/06/18 09:21:02;;;;;;;6.72;5.20;;;28.70;99.90;;;;;;5097363;28;20034;-93
2021/06/18 09:23:36;;;;;;;5.68;4.82;;;28.70;99.90;;;;;;5114774;28;20100;-94
2021/06/18 09:26:21;;;;;;;7.43;5.55;;;28.60;99.90;;;;;;5112899;28;20058;-93
2021/06/18 09:28:57;;;;;;;7.15;5.07;;;28.40;99.90;;;;;;5111135;28;20116;-93
2021/06/18 09:31:24;;;;;;;6.20;5.40;;;28.50;99.90;;;;;;5111640;28;20025;-94
2021/06/18 09:33:50;;;;;;;7.72;5.03;;;28.50;99.90;;;;;;5110874;28;20054;-91
2021/06/18 09:36:16;;;;;;;5.57;5.07;;;28.60;99.90;;;;;;5111759;28;20028;-93
2021/06/18 09:38:51;;;;;;;7.78;4.95;;;28.70;99.90;;;;;;5106572;28;20040;-91
2021/06/18 09:41:44;;;;;;;6.25;5.50;;;29.00;99.90;;;;;;5113555;28;20028;-93
2021/06/18 09:44:18;;;;;;;6.70;5.38;;;29.00;99.90;;;;;;5100805;28;20034;-92
2021/06/18 09:46:51;;;;;;;7.97;4.93;;;28.80;99.90;;;;;;5112280;28;20027;-92
2021/06/18 09:49:32;;;;;;;6.60;5.20;;;28.70;99.90;;;;;;5112893;28;20023;-94
2021/06/18 09:51:59;;;;;;;8.18;5.93;;;29.00;99.90;;;;;;5111090;28;20053;-93
2021/06/18 09:54:33;;;;;;;5.80;4.82;;;28.70;99.90;;;;;;5107428;28;20073;-94
2021/06/18 09:57:08;;;;;;;6.78;4.80;;;28.60;99.90;;;;;;5098460;28;20043;-93
2021/06/18 09:59:58;;;;;;;5.82;4.80;;;28.60;99.90;;;;;;5113165;28;20027;-94
2021/06/18 10:02:51;;;;;;;5.38;4.88;;;28.60;99.90;;;;;;5117018;28;20030;-93
2021/06/18 10:05:22;;;;;;;7.60;5.10;;;28.80;99.90;;;;;;5108221;28;20039;-94
2021/06/18 10:07:50;;;;;;;5.93;5.20;;;29.20;99.90;;;;;;5111819;28;20034;-94
2021/06/18 10:10:28;;;;;;;5.15;4.65;;;29.00;99.90;;;;;;5110156;28;20115;-93
2021/06/18 10:12:54;;;;;;;5.20;4.68;;;28.90;99.90;;;;;;5110587;28;20036;-93
2021/06/18 10:15:22;;;;;;;5.38;4.82;;;28.80;99.90;;;;;;5110456;28;20024;-93
2021/06/18 10:17:50;;;;;;;7.75;5.05;;;29.10;99.90;;;;;;5111414;28;20279;-93
2021/06/18 10:20:18;;;;;;;5.68;4.80;;;29.20;99.90;;;;;;5114243;28;20508;-93
2021/06/18 10:22:50;;;;;;;5.40;4.88;;;29.20;99.90;;;;;;5110490;28;20032;-95
2021/06/18 10:25:22;;;;;;;5.32;4.82;;;28.90;99.90;;;;;;5111208;28;20023;-95
2021/06/18 10:27:49;;;;;;;6.05;5.35;;;28.70;99.90;;;;;;5123864;27;20032;-94
2021/06/18 10:30:29;;;;;;;6.57;5.03;;;29.10;99.90;;;;;;5112789;28;20052;-95
2021/06/18 10:32:56;;;;;;;7.10;5.03;;;29.30;99.90;;;;;;5111362;28;20074;-89
2021/06/18 10:35:44;;;;;;;8.10;5.07;;;29.60;99.90;;;;;;5117742;28;20027;-93
2021/06/18 10:38:23;;;;;;;7.55;5.10;;;29.70;99.90;;;;;;5111395;28;20525;-90
2021/06/18 10:40:49;;;;;;;6.85;5.20;;;29.10;99.90;;;;;;5109485;28;20119;-94
2021/06/18 10:43:15;;;;;;;5.88;4.97;;;29.50;99.90;;;;;;5110575;28;20114;-93
2021/06/18 10:45:59;;;;;;;8.00;4.90;;;29.50;99.90;;;;;;5110862;28;20028;-94
2021/06/18 10:48:50;;;;;;;7.20;5.00;;;29.40;99.90;;;;;;5108114;28;20023;-93
2021/06/18 10:51:30;;;;;;;5.40;4.90;;;29.50;99.90;;;;;;5097549;28;20457;-93
2021/06/18 10:54:05;;;;;;;5.70;4.82;;;29.60;99.90;;;;;;5094509;28;20062;-93
2021/06/18 10:56:49;;;;;;;6.93;5.20;;;29.70;99.90;;;;;;5110101;28;20384;-94
2021/06/18 10:59:26;;;;;;;6.18;4.88;;;29.80;99.90;;;;;;5110902;28;20027;-93
2021/06/18 11:01:52;;;;;;;7.35;5.20;;;30.00;99.90;;;;;;5111980;28;20027;-93
2021/06/18 11:04:34;;;;;;;8.65;5.13;;;29.60;99.90;;;;;;5106093;28;20027;-93
2021/06/18 11:07:00;;;;;;;5.28;4.78;;;29.80;99.90;;;;;;5109430;28;20107;-93
2021/06/18 11:09:44;;;;;;;8.15;4.68;;;30.10;99.90;;;;;;5108645;28;20040;-93
2021/06/18 11:12:25;;;;;;;6.72;5.10;;;29.90;99.90;;;;;;5094125;28;20039;-93
2021/06/18 11:14:51;;;;;;;6.75;5.07;;;30.50;99.90;;;;;;5110313;28;20174;-93
2021/06/18 11:17:58;;;;;;;6.75;5.00;;;30.30;99.90;;;;;;5112792;28;20507;-93
2021/06/18 11:20:41;;;;;;;5.47;4.80;;;30.40;99.90;;;;;;5117234;28;20369;-93
2021/06/18 11:23:17;;;;;;;8.18;4.90;;;30.50;99.90;;;;;;5115600;28;20044;-92
2021/06/18 11:25:43;;;;;;;9.48;4.63;;;30.00;99.90;;;;;;5114802;28;20563;-92
2021/06/18 11:30:49;;;;;;;5.82;5.00;;;30.50;99.90;;;;;;5115269;28;20043;-93
2021/06/18 11:33:47;;;;;;;8.02;5.00;;;30.30;99.90;;;;;;5114726;28;20100;-93
2021/06/18 11:36:22;;;;;;;8.63;4.72;;;30.50;99.90;;;;;;5099760;28;20050;-92
2021/06/18 11:38:59;;;;;;;7.32;4.93;;;30.60;99.90;;;;;;5114811;28;22347;-93
2021/06/18 11:41:37;;;;;;;6.53;5.13;;;30.80;99.90;;;;;;5112505;28;20016;-93
2021/06/18 11:44:04;;;;;;;5.63;4.88;;;30.80;99.90;;;;;;5127450;27;20085;-92
2021/06/18 11:46:32;;;;;;;7.70;4.85;;;30.70;99.90;;;;;;5114598;28;20019;-93
2021/06/18 11:49:12;;;;;;;7.25;5.22;;;30.80;99.90;;;;;;5112117;28;20032;-92
2021/06/18 11:51:39;;;;;;;5.93;4.88;;;31.00;99.90;;;;;;5113224;28;20030;-93
2021/06/18 11:54:05;;;;;;;6.32;5.40;;;31.00;99.90;;;;;;5113406;28;20028;-92
2021/06/18 11:56:32;;;;;;;6.85;5.40;;;30.80;99.90;;;;;;5114465;28;20068;-92
2021/06/18 11:58:57;;;;;;;6.93;5.13;;;31.30;99.90;;;;;;5114906;28;20028;-92
2021/06/18 12:01:30;;;;;;;10.77;6.70;;;31.00;99.90;;;;;;5108316;28;20416;-93
2021/06/18 12:03:57;;;;;;;7.28;5.30;;;31.00;99.90;;;;;;5115131;28;20031;-93
2021/06/18 12:06:25;;;;;;;6.65;5.22;;;31.40;99.90;;;;;;5114368;28;20027;-93
2021/06/18 12:09:02;;;;;;;7.32;5.22;;;31.60;99.90;;;;;;5113205;28;20435;-92
2021/06/18 12:11:42;;;;;;;7.28;4.82;;;32.10;99.90;;;;;;5112177;28;20526;-92
2021/06/18 12:14:10;;;;;;;7.68;5.35;;;32.90;99.90;;;;;;5113704;28;20522;-93
2021/06/18 12:16:38;;;;;;;5.70;4.97;;;33.60;99.90;;;;;;5112096;28;20036;-93
2021/06/18 12:19:24;;;;;;;6.65;5.00;;;34.60;99.90;;;;;;5111014;28;20023;-93
2021/06/18 12:22:01;;;;;;;6.18;5.00;;;35.80;99.90;;;;;;5111961;28;20035;-92
2021/06/18 12:24:36;;;;;;;6.50;4.57;;;37.10;99.90;;;;;;5113913;28;20042;-92
2021/06/18 12:27:07;;;;;;;7.45;4.82;;;36.60;99.90;;;;;;5097060;28;20031;-93
2021/06/18 12:29:36;;;;;;;5.95;4.85;;;36.90;99.90;;;;;;5115396;28;20068;-92
2021/06/18 12:32:02;;;;;;;9.60;4.90;;;37.30;99.90;;;;;;5114162;28;20606;-93
2021/06/18 12:34:28;;;;;;;6.90;5.20;;;37.40;99.90;;;;;;5113458;28;20020;-92
2021/06/18 12:37:08;;;;;;;5.63;4.63;;;36.60;99.90;;;;;;5113967;28;20049;-92
2021/06/18 12:39:59;;;;;;;5.13;4.63;;;35.70;99.90;;;;;;5113243;28;20023;-93
2021/06/18 12:42:28;;;;;;;6.00;4.22;;;36.50;99.90;;;;;;5113102;27;20047;-92
2021/06/18 12:45:09;;;;;;;5.28;4.75;;;36.00;99.90;;;;;;5112500;28;20132;-93
2021/06/18 12:47:36;;;;;;;6.75;4.68;;;36.80;99.90;;;;;;5111172;28;20038;-93
2021/06/18 12:50:25;;;;;;;6.18;5.15;;;36.40;99.90;;;;;;5112785;28;20080;-93
2021/06/18 12:52:53;;;;;;;7.22;4.70;;;36.60;99.90;;;;;;5113116;28;20031;-92